Time;durP1;ratioP1;P1;durP2;ratioP2;P2;SDS_P1;SDS_P2;PMS_P1;PMS_P2;Temp;Humidity;BMP_temperature;BMP_pressure;BME280_temperature;BME280_humidity;BME280_pressure;Samples;Min_cycle;Max_cycle;Signal;HPM_P1;HPM_P2
2021/01/18 00:00:42;;;;;;;6.28;1.90;;;3.80;93.70;;;;;;2088381;28;20048;-81
2021/01/18 00:01:42;;;;;;;5.00;2.00;;;3.80;93.70;;;;;;2083947;28;20029;-81
2021/01/18 00:02:43;;;;;;;5.95;2.17;;;3.80;93.70;;;;;;2098902;28;20032;-81
2021/01/18 00:03:44;;;;;;;5.90;2.17;;;3.80;93.60;;;;;;2095806;28;20037;-82
2021/01/18 00:04:44;;;;;;;7.00;1.92;;;3.80;93.60;;;;;;2090599;28;20036;-81
2021/01/18 00:05:45;;;;;;;7.35;2.05;;;3.80;93.60;;;;;;2099943;28;20048;-80
2021/01/18 00:06:45;;;;;;;6.22;1.70;;;3.80;93.60;;;;;;2099822;28;20075;-81
2021/01/18 00:07:51;;;;;;;6.00;1.90;;;3.80;93.60;;;;;;2090754;28;20037;-80
2021/01/18 00:08:51;;;;;;;6.35;1.90;;;3.80;93.60;;;;;;2066710;28;20081;-80
2021/01/18 00:09:52;;;;;;;8.25;2.30;;;3.80;93.60;;;;;;2075468;28;20100;-81
2021/01/18 00:10:52;;;;;;;6.35;2.17;;;3.90;93.60;;;;;;2088690;28;20026;-81
2021/01/18 00:11:53;;;;;;;7.30;2.70;;;3.90;93.60;;;;;;2082116;28;20503;-82
2021/01/18 00:12:55;;;;;;;5.97;2.00;;;3.90;93.60;;;;;;2087248;28;20491;-81
2021/01/18 00:13:56;;;;;;;5.78;2.33;;;3.90;93.50;;;;;;2089345;28;20115;-81
2021/01/18 00:14:56;;;;;;;5.88;2.20;;;3.90;93.50;;;;;;2101659;28;20016;-80
2021/01/18 00:15:57;;;;;;;6.75;2.15;;;3.90;93.50;;;;;;2081258;28;20029;-81
2021/01/18 00:16:58;;;;;;;5.90;2.30;;;3.90;93.50;;;;;;2072975;28;20030;-80
2021/01/18 00:17:58;;;;;;;6.88;1.92;;;3.90;93.50;;;;;;2077519;28;20029;-81
2021/01/18 00:18:59;;;;;;;6.47;3.00;;;3.90;93.80;;;;;;2081795;28;20430;-81
2021/01/18 00:19:59;;;;;;;6.15;2.60;;;3.90;93.50;;;;;;2081982;28;20516;-81
2021/01/18 00:21:00;;;;;;;7.05;2.42;;;3.90;93.50;;;;;;2087627;28;20045;-81
2021/01/18 00:22:01;;;;;;;6.97;2.33;;;3.90;93.50;;;;;;2083837;28;20113;-81
2021/01/18 00:23:01;;;;;;;5.28;2.05;;;3.90;93.50;;;;;;2098442;28;20028;-81
2021/01/18 00:24:02;;;;;;;6.97;2.75;;;3.80;93.50;;;;;;2098422;28;20040;-81
2021/01/18 00:25:11;;;;;;;5.05;2.15;;;3.80;93.50;;;;;;2081615;28;20037;-80
2021/01/18 00:26:12;;;;;;;6.40;2.50;;;3.80;93.50;;;;;;2082678;28;20048;-80
2021/01/18 00:27:12;;;;;;;6.90;2.70;;;3.80;93.50;;;;;;2094129;28;20086;-80
2021/01/18 00:28:13;;;;;;;6.15;2.40;;;3.80;93.50;;;;;;2084420;28;20471;-81
2021/01/18 00:29:14;;;;;;;7.00;2.63;;;3.80;93.60;;;;;;2081826;28;20036;-80
2021/01/18 00:30:18;;;;;;;9.10;2.30;;;3.70;93.60;;;;;;2085679;28;20017;-80
2021/01/18 00:31:19;;;;;;;8.13;2.58;;;3.70;93.60;;;;;;2082201;28;20032;-81
2021/01/18 00:32:22;;;;;;;7.70;2.85;;;3.70;93.60;;;;;;2083182;28;20539;-80
2021/01/18 00:33:22;;;;;;;7.70;2.40;;;3.70;93.60;;;;;;2090083;28;20025;-81
2021/01/18 00:34:23;;;;;;;6.85;2.72;;;3.70;93.60;;;;;;2089039;28;20033;-80
2021/01/18 00:35:25;;;;;;;5.05;2.05;;;3.70;93.60;;;;;;2089936;28;20479;-81
2021/01/18 00:36:25;;;;;;;7.70;2.72;;;3.70;93.60;;;;;;2090099;28;20063;-81
2021/01/18 00:37:26;;;;;;;7.55;2.58;;;3.70;93.60;;;;;;2089708;28;20479;-80
2021/01/18 00:38:27;;;;;;;5.43;2.53;;;3.70;93.60;;;;;;2089016;28;20052;-81
2021/01/18 00:39:27;;;;;;;6.30;2.55;;;3.70;93.60;;;;;;2083980;28;20052;-81
2021/01/18 00:40:28;;;;;;;8.25;2.70;;;3.70;93.60;;;;;;2080414;28;20025;-80
2021/01/18 00:41:29;;;;;;;6.60;2.50;;;3.70;93.60;;;;;;2081791;28;20029;-81
2021/01/18 00:42:29;;;;;;;7.00;2.67;;;3.70;93.90;;;;;;2095584;28;20399;-80
2021/01/18 00:43:30;;;;;;;6.28;2.45;;;3.70;93.60;;;;;;2090375;28;20029;-81
2021/01/18 00:44:31;;;;;;;5.82;2.58;;;3.70;93.60;;;;;;2084319;28;20036;-81
2021/01/18 00:45:32;;;;;;;5.40;2.28;;;3.70;93.60;;;;;;2089834;28;20090;-81
2021/01/18 00:46:32;;;;;;;9.35;2.63;;;3.70;93.80;;;;;;2079433;28;20549;-81
2021/01/18 00:47:48;;;;;;;6.68;2.35;;;3.70;93.60;;;;;;2089848;28;20115;-81
2021/01/18 00:48:48;;;;;;;6.25;2.60;;;3.80;93.60;;;;;;2094361;28;20490;-81
2021/01/18 00:49:49;;;;;;;6.57;2.50;;;3.80;93.50;;;;;;2089066;28;20037;-81
2021/01/18 00:50:50;;;;;;;6.28;2.50;;;3.70;93.50;;;;;;2106374;28;20032;-81
2021/01/18 00:51:50;;;;;;;7.60;3.10;;;3.80;93.50;;;;;;2091515;28;20137;-82
2021/01/18 00:52:53;;;;;;;5.18;2.35;;;3.80;93.50;;;;;;2081966;28;20030;-81
2021/01/18 00:53:53;;;;;;;6.32;2.80;;;3.80;93.50;;;;;;2097907;28;20028;-81
2021/01/18 00:54:54;;;;;;;6.18;2.45;;;3.80;93.50;;;;;;2081972;28;20397;-81
2021/01/18 00:55:54;;;;;;;5.60;2.10;;;3.80;93.50;;;;;;2073378;28;20030;-81
2021/01/18 00:56:55;;;;;;;8.32;2.45;;;3.80;93.50;;;;;;2078722;28;20430;-81
2021/01/18 00:57:56;;;;;;;7.57;2.60;;;3.80;93.50;;;;;;2068109;28;20427;-81
2021/01/18 00:58:56;;;;;;;5.60;2.45;;;3.80;93.50;;;;;;2064962;28;20357;-81
2021/01/18 00:59:57;;;;;;;7.25;2.53;;;3.80;93.50;;;;;;2062714;28;20037;-81
2021/01/18 01:00:57;;;;;;;7.57;2.60;;;3.80;93.40;;;;;;2075571;28;20525;-81
2021/01/18 01:01:58;;;;;;;4.65;2.55;;;3.80;93.40;;;;;;2080393;28;20061;-81
2021/01/18 01:02:59;;;;;;;7.80;2.67;;;3.80;93.50;;;;;;2081834;28;20379;-81
2021/01/18 01:03:59;;;;;;;9.25;2.70;;;3.80;93.50;;;;;;2094532;28;20033;-81
2021/01/18 01:05:00;;;;;;;6.38;2.65;;;3.80;93.40;;;;;;2089844;28;20033;-81
2021/01/18 01:06:00;;;;;;;7.57;2.60;;;3.80;93.40;;;;;;2076259;28;20049;-81
2021/01/18 01:07:03;;;;;;;6.22;2.47;;;3.80;93.40;;;;;;2081556;28;20025;-81
2021/01/18 01:08:04;;;;;;;9.23;2.67;;;3.80;93.40;;;;;;2090927;28;20021;-81
2021/01/18 01:09:05;;;;;;;8.68;2.75;;;3.80;93.40;;;;;;2083488;28;20503;-81
2021/01/18 01:10:07;;;;;;;7.30;3.00;;;3.80;93.40;;;;;;2094853;28;20036;-81
2021/01/18 01:11:08;;;;;;;7.15;2.55;;;3.80;93.40;;;;;;2097647;28;20051;-81
2021/01/18 01:12:09;;;;;;;8.40;2.95;;;3.90;93.40;;;;;;2087061;28;20498;-81
2021/01/18 01:13:14;;;;;;;6.82;2.60;;;3.90;93.40;;;;;;2081047;28;20033;-81
2021/01/18 01:14:15;;;;;;;6.18;2.63;;;3.90;93.40;;;;;;2081609;28;20364;-81
2021/01/18 01:15:15;;;;;;;6.20;2.70;;;3.90;93.40;;;;;;2073798;28;20076;-81
2021/01/18 01:16:16;;;;;;;6.70;2.90;;;3.90;93.40;;;;;;2081393;28;20021;-81
2021/01/18 01:17:17;;;;;;;8.18;2.80;;;3.90;93.40;;;;;;2089244;28;20040;-82
2021/01/18 01:18:17;;;;;;;7.40;2.88;;;3.80;93.40;;;;;;2081329;28;20120;-82
2021/01/18 01:19:18;;;;;;;7.03;2.85;;;3.90;93.40;;;;;;2074663;28;20435;-82
2021/01/18 01:20:23;;;;;;;8.15;2.88;;;3.80;93.40;;;;;;2073184;28;20046;-82
2021/01/18 01:21:24;;;;;;;8.15;2.80;;;3.80;93.40;;;;;;2074481;28;20017;-82
2021/01/18 01:22:25;;;;;;;7.10;2.95;;;3.80;93.40;;;;;;2089662;28;20029;-82
2021/01/18 01:23:25;;;;;;;8.52;3.22;;;3.80;93.40;;;;;;2089738;28;20039;-82
2021/01/18 01:24:26;;;;;;;7.28;2.53;;;3.70;93.40;;;;;;2074234;28;20427;-82
2021/01/18 01:25:27;;;;;;;6.95;2.85;;;3.70;93.40;;;;;;2081378;28;20030;-82
2021/01/18 01:26:28;;;;;;;7.10;2.50;;;3.70;93.50;;;;;;2097114;28;20508;-81
2021/01/18 01:27:29;;;;;;;6.55;2.88;;;3.70;93.50;;;;;;2086480;28;20025;-82
2021/01/18 01:28:29;;;;;;;6.43;3.20;;;3.70;93.80;;;;;;2093281;28;20040;-81
2021/01/18 01:29:30;;;;;;;6.72;2.65;;;3.70;93.50;;;;;;2097935;28;20887;-82
2021/01/18 01:30:31;;;;;;;7.30;2.65;;;3.60;93.50;;;;;;2081408;28;20095;-82
2021/01/18 01:31:31;;;;;;;7.70;3.22;;;3.60;93.60;;;;;;2090225;28;20035;-82
2021/01/18 01:32:32;;;;;;;7.88;2.90;;;3.60;93.60;;;;;;2088258;28;20029;-82
2021/01/18 01:33:33;;;;;;;6.85;3.20;;;3.60;93.60;;;;;;2074948;28;20026;-82
2021/01/18 01:34:34;;;;;;;6.32;3.00;;;3.50;93.60;;;;;;2073487;28;20033;-82
2021/01/18 01:35:34;;;;;;;8.68;3.00;;;3.50;93.60;;;;;;2073076;28;20129;-82
2021/01/18 01:36:41;;;;;;;6.57;2.97;;;3.50;93.60;;;;;;2073076;28;20409;-81
2021/01/18 01:37:42;;;;;;;9.65;3.30;;;3.50;93.60;;;;;;2088414;28;20029;-81
2021/01/18 01:38:46;;;;;;;7.22;3.28;;;3.50;93.60;;;;;;2081724;28;20021;-82
2021/01/18 01:39:47;;;;;;;8.05;3.50;;;3.50;93.60;;;;;;2082173;28;20060;-82
2021/01/18 01:40:47;;;;;;;7.18;3.03;;;3.50;93.60;;;;;;2087432;28;20025;-82
2021/01/18 01:41:48;;;;;;;10.60;3.22;;;3.50;93.60;;;;;;2072927;28;20065;-81
2021/01/18 01:42:49;;;;;;;6.30;3.10;;;3.60;93.90;;;;;;2089635;28;20040;-82
2021/01/18 01:43:50;;;;;;;8.35;2.92;;;3.60;93.60;;;;;;2096606;28;20546;-82
2021/01/18 01:44:51;;;;;;;8.85;3.22;;;3.60;93.60;;;;;;2081111;28;20040;-82
2021/01/18 01:45:52;;;;;;;8.00;3.15;;;3.60;93.60;;;;;;2065531;28;20508;-82
2021/01/18 01:46:53;;;;;;;5.43;3.42;;;3.60;93.50;;;;;;2067991;28;20026;-82
2021/01/18 01:47:55;;;;;;;8.63;3.38;;;3.60;93.50;;;;;;2089034;28;20025;-81
2021/01/18 01:48:56;;;;;;;6.07;3.33;;;3.50;93.50;;;;;;2081251;28;20072;-82
2021/01/18 01:49:58;;;;;;;7.47;3.20;;;3.50;93.50;;;;;;2089454;28;20120;-81
2021/01/18 01:50:59;;;;;;;9.02;3.20;;;3.50;93.50;;;;;;2097333;28;20398;-82
2021/01/18 01:52:02;;;;;;;7.60;3.50;;;3.50;93.50;;;;;;2097287;28;20020;-82
2021/01/18 01:53:15;;;;;;;8.38;3.40;;;3.50;93.50;;;;;;2096961;28;20048;-82
2021/01/18 01:54:16;;;;;;;6.78;3.28;;;3.50;93.60;;;;;;2088555;28;20025;-81
2021/01/18 01:55:30;;;;;;;8.40;3.50;;;3.50;93.80;;;;;;2097505;28;20135;-81
2021/01/18 01:56:31;;;;;;;6.97;3.30;;;3.40;93.60;;;;;;2090718;28;20028;-81
2021/01/18 01:57:33;;;;;;;6.63;3.38;;;3.40;93.60;;;;;;2086255;28;20025;-81
2021/01/18 01:58:34;;;;;;;6.32;3.30;;;3.40;93.60;;;;;;2085003;28;20037;-81
2021/01/18 01:59:34;;;;;;;6.53;3.38;;;3.40;93.60;;;;;;2081844;28;20400;-81
2021/01/18 02:00:39;;;;;;;7.55;3.88;;;3.40;93.60;;;;;;2080654;28;20032;-81
2021/01/18 02:01:40;;;;;;;8.73;3.40;;;3.40;93.60;;;;;;2081785;28;20108;-81
2021/01/18 02:02:40;;;;;;;7.25;3.20;;;3.40;93.60;;;;;;2081899;28;20037;-82
2021/01/18 02:03:44;;;;;;;8.07;3.63;;;3.40;93.60;;;;;;2081073;28;20571;-81
2021/01/18 02:04:48;;;;;;;6.40;3.15;;;3.30;93.60;;;;;;2073317;28;20022;-81
2021/01/18 02:05:51;;;;;;;5.82;3.42;;;3.30;93.60;;;;;;2080146;28;20029;-82
2021/01/18 02:06:51;;;;;;;7.70;3.30;;;3.30;93.60;;;;;;2080807;28;20057;-81
2021/01/18 02:07:59;;;;;;;6.70;3.05;;;3.30;93.60;;;;;;2089537;28;20032;-81
2021/01/18 02:08:59;;;;;;;9.85;3.63;;;3.30;93.60;;;;;;2095936;28;20075;-81
2021/01/18 02:10:00;;;;;;;6.13;3.13;;;3.30;93.60;;;;;;2081096;28;20028;-81
2021/01/18 02:11:01;;;;;;;6.85;3.40;;;3.30;93.60;;;;;;2080539;28;20029;-82
2021/01/18 02:12:02;;;;;;;7.13;3.53;;;3.30;93.60;;;;;;2080996;28;20022;-81
2021/01/18 02:13:19;;;;;;;8.05;3.58;;;3.20;93.60;;;;;;2087662;28;20029;-81
2021/01/18 02:14:52;;;;;;;8.43;3.78;;;3.20;93.60;;;;;;2087685;28;20060;-82
2021/01/18 02:16:15;;;;;;;6.18;2.95;;;3.20;93.70;;;;;;2079101;28;20130;-81
2021/01/18 02:17:44;;;;;;;6.63;3.25;;;3.20;93.60;;;;;;2090487;28;20081;-82
2021/01/18 02:19:00;;;;;;;5.32;2.80;;;3.10;93.60;;;;;;2089025;28;20025;-82
2021/01/18 02:20:30;;;;;;;6.68;2.97;;;3.20;93.60;;;;;;2086196;28;20025;-82
2021/01/18 02:22:07;;;;;;;6.63;2.85;;;3.10;93.60;;;;;;2086671;28;20502;-81
2021/01/18 02:23:16;;;;;;;8.00;2.90;;;3.10;93.60;;;;;;2081312;28;20040;-81
2021/01/18 02:24:35;;;;;;;6.70;3.10;;;3.10;93.60;;;;;;2089208;28;20021;-81
2021/01/18 02:25:41;;;;;;;7.88;3.13;;;3.10;93.60;;;;;;2082720;28;20633;-82
2021/01/18 02:27:12;;;;;;;8.93;3.40;;;3.10;93.60;;;;;;2079690;28;20032;-81
2021/01/18 02:28:26;;;;;;;6.65;3.13;;;3.10;93.60;;;;;;2085739;28;20025;-81
2021/01/18 02:29:38;;;;;;;5.50;2.58;;;3.10;93.60;;;;;;2084922;28;20021;-81
2021/01/18 02:30:50;;;;;;;7.53;2.95;;;3.10;93.60;;;;;;2080981;28;20387;-81
2021/01/18 02:32:09;;;;;;;6.68;3.17;;;3.10;93.60;;;;;;2074240;28;20026;-81
2021/01/18 02:33:28;;;;;;;5.82;2.75;;;3.10;93.60;;;;;;2077274;28;20507;-82
2021/01/18 02:34:38;;;;;;;6.03;2.95;;;3.10;93.60;;;;;;2088747;28;20028;-82
2021/01/18 02:35:45;;;;;;;6.20;2.85;;;3.10;93.60;;;;;;2089717;28;20466;-82
2021/01/18 02:37:21;;;;;;;6.30;2.97;;;3.10;93.60;;;;;;2088196;28;20032;-82
2021/01/18 02:38:46;;;;;;;7.15;2.67;;;3.10;93.60;;;;;;2082509;28;20052;-82
2021/01/18 02:39:56;;;;;;;6.32;2.85;;;3.10;93.50;;;;;;2081428;28;20037;-82
2021/01/18 02:41:22;;;;;;;5.57;3.03;;;3.10;93.50;;;;;;2074049;28;20030;-81
2021/01/18 02:42:41;;;;;;;6.53;2.92;;;3.10;93.50;;;;;;2088399;28;20029;-81
2021/01/18 02:43:48;;;;;;;5.60;2.80;;;3.10;93.50;;;;;;2087966;28;20023;-82
2021/01/18 02:44:50;;;;;;;6.03;2.83;;;3.10;93.50;;;;;;2083533;28;20099;-82
2021/01/18 02:45:52;;;;;;;6.10;3.03;;;3.10;93.50;;;;;;2095218;28;20060;-81
2021/01/18 02:46:53;;;;;;;6.05;3.30;;;3.00;93.80;;;;;;2088982;28;20143;-82
2021/01/18 02:47:54;;;;;;;6.88;2.90;;;3.00;93.50;;;;;;2078996;28;20041;-82
2021/01/18 02:48:57;;;;;;;7.38;3.30;;;3.00;93.50;;;;;;2086833;28;20029;-82
2021/01/18 02:50:00;;;;;;;7.85;3.42;;;3.10;93.60;;;;;;2089583;28;20033;-82
2021/01/18 02:51:04;;;;;;;4.65;2.83;;;3.10;93.60;;;;;;2082122;28;20013;-81
2021/01/18 02:52:12;;;;;;;7.82;3.50;;;3.10;93.60;;;;;;2081813;28;20049;-82
2021/01/18 02:53:13;;;;;;;7.55;3.28;;;3.10;93.60;;;;;;2085072;28;20499;-81
2021/01/18 02:54:13;;;;;;;6.60;3.35;;;3.10;93.60;;;;;;2078354;28;20021;-81
2021/01/18 02:55:16;;;;;;;6.28;3.40;;;3.10;93.60;;;;;;2080425;28;20030;-81
2021/01/18 02:56:17;;;;;;;6.75;3.75;;;3.10;93.50;;;;;;2086916;28;20471;-81
2021/01/18 02:57:20;;;;;;;7.65;3.47;;;3.10;93.50;;;;;;2080870;28;20034;-82
2021/01/18 02:58:23;;;;;;;7.55;3.53;;;3.10;93.50;;;;;;2080954;28;20549;-81
2021/01/18 02:59:24;;;;;;;5.60;3.28;;;3.10;93.50;;;;;;2084231;28;20491;-82
2021/01/18 03:00:31;;;;;;;7.00;3.63;;;3.10;93.50;;;;;;2088148;28;20052;-81
2021/01/18 03:01:57;;;;;;;6.20;3.35;;;3.10;93.50;;;;;;2084501;28;20025;-82
2021/01/18 03:03:08;;;;;;;8.38;3.03;;;3.10;93.50;;;;;;2081375;28;20774;-82
2021/01/18 03:04:31;;;;;;;6.75;2.90;;;3.10;93.50;;;;;;2081184;28;20026;-81
2021/01/18 03:05:59;;;;;;;5.75;3.40;;;3.10;93.50;;;;;;2081701;28;20018;-81
2021/01/18 03:07:44;;;;;;;5.63;3.05;;;3.00;93.50;;;;;;2084361;28;20032;-81
2021/01/18 03:08:50;;;;;;;5.43;3.10;;;3.00;93.50;;;;;;2087260;28;20436;-82
2021/01/18 03:09:58;;;;;;;7.40;3.20;;;3.00;93.50;;;;;;2082666;28;20051;-82
2021/01/18 03:11:23;;;;;;;7.72;3.47;;;3.00;93.50;;;;;;2098365;28;20528;-82
2021/01/18 03:12:29;;;;;;;7.43;3.17;;;3.00;93.50;;;;;;2091124;28;20033;-81
2021/01/18 03:13:33;;;;;;;5.40;3.20;;;3.00;93.50;;;;;;2089378;28;20036;-81
2021/01/18 03:14:41;;;;;;;5.78;3.30;;;3.00;93.50;;;;;;2089117;28;20095;-81
2021/01/18 03:15:45;;;;;;;6.00;3.28;;;2.90;93.50;;;;;;2090515;28;20033;-81
2021/01/18 03:16:49;;;;;;;6.93;3.38;;;3.00;93.60;;;;;;2089950;28;20470;-81
2021/01/18 03:17:51;;;;;;;5.75;3.22;;;3.00;93.60;;;;;;2082862;28;20558;-81
2021/01/18 03:18:52;;;;;;;6.95;3.20;;;3.00;93.60;;;;;;2089586;28;20446;-82
2021/01/18 03:19:54;;;;;;;8.15;3.33;;;2.90;93.60;;;;;;2090468;28;20036;-81
2021/01/18 03:20:55;;;;;;;6.45;3.17;;;2.90;93.60;;;;;;2090582;28;20430;-81
2021/01/18 03:21:56;;;;;;;8.80;3.70;;;2.90;93.60;;;;;;2082069;28;20034;-81
2021/01/18 03:23:02;;;;;;;7.47;3.47;;;2.90;93.60;;;;;;2082353;28;20025;-81
2021/01/18 03:24:03;;;;;;;7.10;3.63;;;3.00;93.90;;;;;;2074834;28;20037;-81
2021/01/18 03:25:06;;;;;;;7.20;3.47;;;2.90;93.60;;;;;;2074194;28;20065;-81
2021/01/18 03:26:06;;;;;;;8.30;3.97;;;2.90;93.60;;;;;;2090029;28;20116;-82
2021/01/18 03:27:07;;;;;;;7.40;3.67;;;2.90;93.60;;;;;;2091829;28;20029;-81
2021/01/18 03:28:08;;;;;;;8.90;4.47;;;2.90;93.60;;;;;;2092071;28;20136;-82
2021/01/18 03:29:08;;;;;;;8.43;4.20;;;2.90;93.90;;;;;;2084134;28;20037;-81
2021/01/18 03:30:10;;;;;;;5.88;3.30;;;2.90;93.60;;;;;;2082919;28;20025;-81
2021/01/18 03:31:10;;;;;;;9.93;3.80;;;2.90;93.70;;;;;;2082025;28;20116;-81
2021/01/18 03:32:11;;;;;;;11.60;4.22;;;2.90;93.60;;;;;;2065918;28;20031;-81
2021/01/18 03:33:12;;;;;;;8.15;3.65;;;2.90;93.60;;;;;;2072534;28;20049;-82
2021/01/18 03:34:13;;;;;;;7.72;3.72;;;2.90;93.60;;;;;;2093536;28;20025;-81
2021/01/18 03:35:14;;;;;;;6.60;4.10;;;2.90;93.70;;;;;;2089878;28;20090;-81
2021/01/18 03:36:15;;;;;;;7.18;3.97;;;2.90;93.70;;;;;;2089223;28;20021;-81
2021/01/18 03:37:15;;;;;;;10.70;3.92;;;2.90;93.70;;;;;;2102445;28;20024;-81
2021/01/18 03:38:16;;;;;;;7.38;3.50;;;2.90;93.70;;;;;;2098702;28;20029;-82
2021/01/18 03:39:17;;;;;;;7.63;4.03;;;2.90;93.70;;;;;;2073435;28;20124;-82
2021/01/18 03:40:18;;;;;;;8.13;3.95;;;2.90;93.70;;;;;;2074813;28;20034;-81
2021/01/18 03:41:19;;;;;;;7.78;3.75;;;2.90;93.70;;;;;;2088634;28;20021;-81
2021/01/18 03:42:19;;;;;;;6.80;3.85;;;2.80;93.70;;;;;;2091623;28;20041;-81
2021/01/18 03:43:21;;;;;;;6.70;3.72;;;2.80;93.70;;;;;;2098422;28;20035;-81
2021/01/18 03:44:22;;;;;;;9.63;3.58;;;2.80;93.70;;;;;;2086600;28;20390;-81
2021/01/18 03:45:23;;;;;;;7.32;4.22;;;2.80;93.70;;;;;;2085749;28;20022;-81
2021/01/18 03:46:23;;;;;;;6.78;3.60;;;2.80;93.70;;;;;;2091061;28;20025;-81
2021/01/18 03:47:24;;;;;;;6.55;4.03;;;2.80;93.70;;;;;;2090542;28;20134;-81
2021/01/18 03:48:25;;;;;;;9.15;3.92;;;2.80;93.70;;;;;;2085585;28;20025;-81
2021/01/18 03:49:25;;;;;;;6.68;3.55;;;2.80;93.70;;;;;;2078378;28;20026;-81
2021/01/18 03:50:26;;;;;;;7.50;4.07;;;2.80;93.70;;;;;;2081396;28;20041;-81
2021/01/18 03:51:30;;;;;;;7.88;4.20;;;2.80;93.70;;;;;;2081965;28;20021;-81
2021/01/18 03:52:30;;;;;;;8.65;4.25;;;2.80;93.70;;;;;;2091050;28;20079;-82
2021/01/18 03:53:31;;;;;;;8.43;4.47;;;2.80;93.70;;;;;;2096576;28;20115;-80
2021/01/18 03:54:32;;;;;;;7.40;4.00;;;2.70;93.70;;;;;;2086297;28;20031;-82
2021/01/18 03:55:33;;;;;;;7.57;3.90;;;2.70;93.70;;;;;;2096218;28;20061;-81
2021/01/18 03:56:40;;;;;;;7.25;4.15;;;2.70;93.70;;;;;;2084435;28;20030;-82
2021/01/18 03:57:44;;;;;;;7.47;4.03;;;2.70;93.70;;;;;;2092182;28;20014;-82
2021/01/18 03:58:45;;;;;;;6.82;4.10;;;2.70;93.70;;;;;;2101422;28;20044;-80
2021/01/18 03:59:46;;;;;;;8.07;3.97;;;2.70;93.70;;;;;;2096184;28;20124;-82
2021/01/18 04:00:46;;;;;;;7.88;3.80;;;2.70;93.70;;;;;;2078860;28;20072;-81
2021/01/18 04:01:47;;;;;;;6.22;3.80;;;2.70;93.70;;;;;;2081686;28;20022;-81
2021/01/18 04:02:48;;;;;;;6.13;3.33;;;2.70;93.70;;;;;;2090142;28;20028;-82
2021/01/18 04:03:48;;;;;;;9.07;4.35;;;2.70;93.70;;;;;;2091613;28;20037;-82
2021/01/18 04:04:49;;;;;;;7.10;4.13;;;2.70;93.70;;;;;;2099692;28;20013;-82
2021/01/18 04:05:49;;;;;;;6.50;4.10;;;2.70;93.70;;;;;;2101995;28;20036;-82
2021/01/18 04:06:50;;;;;;;6.47;4.00;;;2.60;93.70;;;;;;2108279;28;20031;-81
2021/01/18 04:07:51;;;;;;;9.68;4.57;;;2.70;93.70;;;;;;2091850;28;20014;-81
2021/01/18 04:08:52;;;;;;;9.07;4.28;;;2.70;93.70;;;;;;2097751;28;20064;-82
2021/01/18 04:09:52;;;;;;;7.72;4.40;;;2.70;93.70;;;;;;2082840;28;20021;-82
2021/01/18 04:10:53;;;;;;;8.63;4.07;;;2.70;94.00;;;;;;2087164;28;20025;-81
2021/01/18 04:11:54;;;;;;;8.32;4.53;;;2.70;93.70;;;;;;2090378;28;20465;-82
2021/01/18 04:12:56;;;;;;;8.35;3.88;;;2.70;93.70;;;;;;2090611;28;20115;-81
2021/01/18 04:13:57;;;;;;;9.38;4.22;;;2.70;93.70;;;;;;2081950;28;20025;-81
2021/01/18 04:14:57;;;;;;;9.73;4.55;;;2.70;93.70;;;;;;2084507;28;20552;-82
2021/01/18 04:15:58;;;;;;;7.65;4.28;;;2.70;93.70;;;;;;2089405;28;20076;-82
2021/01/18 04:16:59;;;;;;;9.80;4.35;;;2.70;93.70;;;;;;2090758;28;20025;-82
2021/01/18 04:17:59;;;;;;;9.52;4.47;;;2.70;93.70;;;;;;2082134;28;20049;-82
2021/01/18 04:19:00;;;;;;;7.80;3.90;;;2.70;93.60;;;;;;2073083;28;20022;-81
2021/01/18 04:20:01;;;;;;;9.93;4.35;;;2.70;93.70;;;;;;2074064;28;20026;-82
2021/01/18 04:21:02;;;;;;;10.23;4.47;;;2.70;93.60;;;;;;2074107;28;20420;-81
2021/01/18 04:22:06;;;;;;;10.18;4.28;;;2.70;93.70;;;;;;2090278;28;20074;-81
2021/01/18 04:23:07;;;;;;;10.70;4.05;;;2.70;93.70;;;;;;2090035;28;20032;-81
2021/01/18 04:24:08;;;;;;;8.68;4.28;;;2.70;93.70;;;;;;2081852;28;20395;-81
2021/01/18 04:25:09;;;;;;;9.85;4.22;;;2.70;93.70;;;;;;2097663;28;20028;-81
2021/01/18 04:26:10;;;;;;;8.85;4.53;;;2.70;93.70;;;;;;2099798;28;20009;-80
2021/01/18 04:27:11;;;;;;;8.18;4.43;;;2.70;93.70;;;;;;2098858;28;20029;-81
2021/01/18 04:28:11;;;;;;;8.35;4.13;;;2.70;93.70;;;;;;2090453;28;20489;-81
2021/01/18 04:29:15;;;;;;;9.52;4.22;;;2.70;93.70;;;;;;2100244;28;20021;-83
2021/01/18 04:30:18;;;;;;;7.32;4.30;;;2.70;93.70;;;;;;2087917;28;20204;-81
2021/01/18 04:31:18;;;;;;;10.35;4.43;;;2.60;93.70;;;;;;2089432;28;20479;-81
2021/01/18 04:32:19;;;;;;;8.77;4.20;;;2.70;93.70;;;;;;2096058;28;20043;-81
2021/01/18 04:33:24;;;;;;;8.82;4.30;;;2.60;93.70;;;;;;2081884;28;20436;-81
2021/01/18 04:34:25;;;;;;;8.57;4.40;;;2.70;93.70;;;;;;2075003;28;20117;-81
2021/01/18 04:35:26;;;;;;;8.70;4.38;;;2.70;93.70;;;;;;2081236;28;20435;-81
2021/01/18 04:36:36;;;;;;;7.22;3.83;;;2.60;93.70;;;;;;2074166;28;20116;-81
2021/01/18 04:37:37;;;;;;;8.02;4.22;;;2.60;93.70;;;;;;2082437;28;20148;-82
2021/01/18 04:38:37;;;;;;;8.35;4.50;;;2.60;93.70;;;;;;2087684;28;20021;-81
2021/01/18 04:39:39;;;;;;;9.23;4.60;;;2.60;93.70;;;;;;2088738;28;20072;-81
2021/01/18 04:40:42;;;;;;;7.40;4.00;;;2.60;93.70;;;;;;2082976;28;20135;-82
2021/01/18 04:41:44;;;;;;;7.90;4.10;;;2.60;93.70;;;;;;2085057;28;20120;-81
2021/01/18 04:42:45;;;;;;;10.15;4.70;;;2.60;93.70;;;;;;2089806;28;20022;-81
2021/01/18 04:43:46;;;;;;;9.25;4.35;;;2.60;93.70;;;;;;2089843;28;20047;-81
2021/01/18 04:44:47;;;;;;;7.60;4.05;;;2.60;93.70;;;;;;2084074;28;20025;-82
2021/01/18 04:45:50;;;;;;;8.48;4.38;;;2.60;93.70;;;;;;2090003;28;20367;-82
2021/01/18 04:46:55;;;;;;;8.30;4.00;;;2.60;93.70;;;;;;2091459;28;20108;-82
2021/01/18 04:47:57;;;;;;;10.52;4.72;;;2.60;93.70;;;;;;2082226;28;20128;-82
2021/01/18 04:48:58;;;;;;;8.15;4.50;;;2.60;93.70;;;;;;2081945;28;20048;-82
2021/01/18 04:50:02;;;;;;;9.55;4.82;;;2.60;93.70;;;;;;2098590;28;20482;-83
2021/01/18 04:51:06;;;;;;;7.88;4.45;;;2.60;93.70;;;;;;2082108;28;20463;-82
2021/01/18 04:52:15;;;;;;;8.82;4.30;;;2.70;93.70;;;;;;2083143;28;20040;-81
2021/01/18 04:53:17;;;;;;;9.75;4.80;;;2.60;93.70;;;;;;2096432;28;20486;-81
2021/01/18 04:54:25;;;;;;;9.20;4.47;;;2.60;93.70;;;;;;2082315;28;20482;-82
2021/01/18 04:55:27;;;;;;;9.23;4.38;;;2.60;93.70;;;;;;2086821;28;20037;-81
2021/01/18 04:56:40;;;;;;;8.23;4.53;;;2.60;93.70;;;;;;2082923;28;20105;-81
2021/01/18 04:57:56;;;;;;;9.00;4.50;;;2.70;93.70;;;;;;2086543;28;20029;-81
2021/01/18 04:59:03;;;;;;;10.40;4.38;;;2.70;93.70;;;;;;2080357;28;20033;-81
2021/01/18 05:00:04;;;;;;;9.45;4.22;;;2.70;93.70;;;;;;2092001;28;20031;-81
2021/01/18 05:01:05;;;;;;;7.75;4.18;;;2.70;93.60;;;;;;2096918;28;20406;-81
2021/01/18 05:02:15;;;;;;;9.25;4.57;;;2.70;93.60;;;;;;2073862;28;20030;-80
2021/01/18 05:03:18;;;;;;;9.48;4.90;;;2.70;93.60;;;;;;2082852;28;20045;-81
2021/01/18 05:04:27;;;;;;;7.93;4.72;;;2.70;93.60;;;;;;2081509;28;20427;-82
2021/01/18 05:05:30;;;;;;;9.05;4.18;;;2.80;93.60;;;;;;2085370;28;20402;-81
2021/01/18 05:06:42;;;;;;;10.43;4.68;;;2.80;93.60;;;;;;2082269;28;20026;-81
2021/01/18 05:08:05;;;;;;;9.02;4.25;;;2.80;93.60;;;;;;2083714;28;20484;-81
2021/01/18 05:09:24;;;;;;;8.90;4.25;;;2.80;93.60;;;;;;2082915;28;20037;-82
2021/01/18 05:10:26;;;;;;;7.97;4.45;;;2.80;93.60;;;;;;2083874;28;20030;-81
2021/01/18 05:11:27;;;;;;;7.40;4.55;;;2.80;93.50;;;;;;2083057;28;20567;-82
2021/01/18 05:12:30;;;;;;;9.77;4.93;;;2.90;93.50;;;;;;2097110;28;20040;-80
2021/01/18 05:13:31;;;;;;;10.70;4.68;;;2.80;93.50;;;;;;2089178;28;20028;-81
2021/01/18 05:14:34;;;;;;;7.80;4.35;;;2.90;93.60;;;;;;2073829;28;20030;-81
2021/01/18 05:15:36;;;;;;;8.43;4.55;;;2.80;93.50;;;;;;2089755;28;20036;-81
2021/01/18 05:16:38;;;;;;;8.40;4.65;;;2.90;93.60;;;;;;2083578;28;20049;-81
2021/01/18 05:17:44;;;;;;;8.88;4.97;;;2.90;93.60;;;;;;2082447;28;20034;-81
2021/01/18 05:18:49;;;;;;;7.28;4.63;;;2.90;93.60;;;;;;2082378;28;20447;-81
2021/01/18 05:19:50;;;;;;;8.98;4.47;;;2.90;93.60;;;;;;2081596;28;20029;-81
2021/01/18 05:20:53;;;;;;;9.05;4.50;;;2.90;93.60;;;;;;2086295;28;20044;-81
2021/01/18 05:21:54;;;;;;;8.57;4.40;;;2.90;93.60;;;;;;2081254;28;20496;-81
2021/01/18 05:22:55;;;;;;;8.88;4.68;;;2.90;93.60;;;;;;2073819;28;20038;-81
2021/01/18 05:23:56;;;;;;;9.68;4.97;;;2.90;93.60;;;;;;2089693;28;20577;-81
2021/01/18 05:24:56;;;;;;;11.60;5.60;;;2.90;93.60;;;;;;2097710;28;20032;-81
2021/01/18 05:26:26;;;;;;;8.10;4.75;;;2.90;93.60;;;;;;2102859;28;20604;-81
2021/01/18 05:27:26;;;;;;;8.45;4.28;;;3.00;93.60;;;;;;2090392;28;20036;-81
2021/01/18 05:28:27;;;;;;;9.65;4.75;;;3.00;93.60;;;;;;2088127;28;20056;-82
2021/01/18 05:29:29;;;;;;;11.05;5.07;;;3.00;93.50;;;;;;2080751;28;20160;-81
2021/01/18 05:30:34;;;;;;;8.82;4.55;;;3.00;93.50;;;;;;2086583;28;20111;-81
2021/01/18 05:31:37;;;;;;;9.57;5.00;;;3.00;93.50;;;;;;2097421;28;20131;-81
2021/01/18 05:32:37;;;;;;;9.18;5.10;;;3.00;93.50;;;;;;2086612;28;20525;-81
2021/01/18 05:33:38;;;;;;;8.50;4.82;;;3.00;93.50;;;;;;2089647;28;20090;-82
2021/01/18 05:34:39;;;;;;;9.68;5.28;;;3.00;93.50;;;;;;2073024;28;20059;-82
2021/01/18 05:35:49;;;;;;;10.30;4.78;;;3.00;93.50;;;;;;2074664;28;20041;-81
2021/01/18 05:36:50;;;;;;;7.35;4.65;;;3.00;93.50;;;;;;2081801;28;20051;-82
2021/01/18 05:38:11;;;;;;;9.40;5.15;;;3.00;93.50;;;;;;2081431;28;20041;-81